sensor_id;sensor_type;location;lat;lon;timestamp;P1;durP1;ratioP1;P2;durP2;ratioP2
32872;SDS011;19224;52.462;16.898;2022-11-20T00:02:29;18.73;;;8.80;;
32872;SDS011;19224;52.462;16.898;2022-11-20T00:04:59;17.17;;;8.87;;
32872;SDS011;19224;52.462;16.898;2022-11-20T00:07:30;15.73;;;8.93;;
32872;SDS011;19224;52.462;16.898;2022-11-20T00:10:00;15.37;;;9.40;;
32872;SDS011;19224;52.462;16.898;2022-11-20T00:12:30;17.20;;;9.43;;
32872;SDS011;19224;52.462;16.898;2022-11-20T00:15:01;18.00;;;9.70;;
32872;SDS011;19224;52.462;16.898;2022-11-20T00:17:32;16.33;;;9.17;;
32872;SDS011;19224;52.462;16.898;2022-11-20T00:20:03;23.20;;;9.67;;
32872;SDS011;19224;52.462;16.898;2022-11-20T00:22:34;18.97;;;9.13;;
32872;SDS011;19224;52.462;16.898;2022-11-20T00:25:04;18.73;;;9.83;;
32872;SDS011;19224;52.462;16.898;2022-11-20T00:27:35;29.00;;;15.63;;
32872;SDS011;19224;52.462;16.898;2022-11-20T00:30:06;23.00;;;11.23;;
32872;SDS011;19224;52.462;16.898;2022-11-20T00:32:37;25.27;;;13.23;;
32872;SDS011;19224;52.462;16.898;2022-11-20T00:35:08;19.85;;;10.32;;
32872;SDS011;19224;52.462;16.898;2022-11-20T00:37:38;19.10;;;9.97;;
32872;SDS011;19224;52.462;16.898;2022-11-20T00:40:09;17.60;;;9.60;;
32872;SDS011;19224;52.462;16.898;2022-11-20T00:42:40;18.23;;;9.90;;
32872;SDS011;19224;52.462;16.898;2022-11-20T00:45:10;15.47;;;8.90;;
32872;SDS011;19224;52.462;16.898;2022-11-20T00:47:41;18.37;;;9.37;;
32872;SDS011;19224;52.462;16.898;2022-11-20T00:50:11;15.90;;;9.07;;
32872;SDS011;19224;52.462;16.898;2022-11-20T00:52:41;15.63;;;8.60;;
32872;SDS011;19224;52.462;16.898;2022-11-20T00:55:12;16.03;;;9.20;;
32872;SDS011;19224;52.462;16.898;2022-11-20T00:57:42;17.60;;;9.17;;
32872;SDS011;19224;52.462;16.898;2022-11-20T01:00:15;16.67;;;9.50;;
32872;SDS011;19224;52.462;16.898;2022-11-20T01:02:46;16.03;;;9.20;;
32872;SDS011;19224;52.462;16.898;2022-11-20T01:05:16;16.93;;;8.93;;
32872;SDS011;19224;52.462;16.898;2022-11-20T01:07:46;19.47;;;10.30;;
32872;SDS011;19224;52.462;16.898;2022-11-20T01:10:17;15.70;;;9.27;;
32872;SDS011;19224;52.462;16.898;2022-11-20T01:12:47;17.83;;;9.10;;
32872;SDS011;19224;52.462;16.898;2022-11-20T01:15:19;20.70;;;10.03;;
32872;SDS011;19224;52.462;16.898;2022-11-20T01:17:49;18.55;;;10.15;;
32872;SDS011;19224;52.462;16.898;2022-11-20T01:20:20;18.32;;;9.78;;
32872;SDS011;19224;52.462;16.898;2022-11-20T01:22:50;17.30;;;9.20;;
32872;SDS011;19224;52.462;16.898;2022-11-20T01:25:20;15.43;;;9.17;;
32872;SDS011;19224;52.462;16.898;2022-11-20T01:27:51;15.80;;;8.70;;
32872;SDS011;19224;52.462;16.898;2022-11-20T01:30:21;17.43;;;8.67;;
32872;SDS011;19224;52.462;16.898;2022-11-20T01:32:51;15.07;;;8.33;;
32872;SDS011;19224;52.462;16.898;2022-11-20T01:35:23;15.53;;;8.57;;
32872;SDS011;19224;52.462;16.898;2022-11-20T01:37:54;14.53;;;8.57;;
32872;SDS011;19224;52.462;16.898;2022-11-20T01:40:24;17.17;;;9.47;;
32872;SDS011;19224;52.462;16.898;2022-11-20T01:42:58;15.10;;;8.50;;
32872;SDS011;19224;52.462;16.898;2022-11-20T01:48:48;15.17;;;8.80;;
32872;SDS011;19224;52.462;16.898;2022-11-20T01:51:50;15.23;;;9.27;;
32872;SDS011;19224;52.462;16.898;2022-11-20T01:54:25;14.80;;;8.67;;
32872;SDS011;19224;52.462;16.898;2022-11-20T01:56:58;13.90;;;8.27;;
32872;SDS011;19224;52.462;16.898;2022-11-20T01:59:31;18.40;;;9.60;;
32872;SDS011;19224;52.462;16.898;2022-11-20T02:02:02;16.07;;;8.30;;
32872;SDS011;19224;52.462;16.898;2022-11-20T02:04:33;14.93;;;8.18;;
32872;SDS011;19224;52.462;16.898;2022-11-20T02:07:04;12.93;;;8.57;;
32872;SDS011;19224;52.462;16.898;2022-11-20T02:09:37;17.37;;;8.90;;
32872;SDS011;19224;52.462;16.898;2022-11-20T02:12:07;14.33;;;8.50;;
32872;SDS011;19224;52.462;16.898;2022-11-20T02:14:39;15.70;;;8.07;;
32872;SDS011;19224;52.462;16.898;2022-11-20T02:17:09;12.27;;;7.57;;
32872;SDS011;19224;52.462;16.898;2022-11-20T02:19:39;15.33;;;8.97;;
32872;SDS011;19224;52.462;16.898;2022-11-20T02:22:29;16.23;;;8.97;;
32872;SDS011;19224;52.462;16.898;2022-11-20T02:25:03;15.17;;;8.27;;
32872;SDS011;19224;52.462;16.898;2022-11-20T02:27:35;15.18;;;8.85;;
32872;SDS011;19224;52.462;16.898;2022-11-20T02:30:07;15.48;;;9.03;;
32872;SDS011;19224;52.462;16.898;2022-11-20T02:32:38;12.33;;;8.27;;
32872;SDS011;19224;52.462;16.898;2022-11-20T02:35:35;16.67;;;8.85;;
32872;SDS011;19224;52.462;16.898;2022-11-20T02:37:51;17.30;;;9.70;;
32872;SDS011;19224;52.462;16.898;2022-11-20T02:40:23;15.57;;;9.80;;
32872;SDS011;19224;52.462;16.898;2022-11-20T02:42:55;19.17;;;9.47;;
32872;SDS011;19224;52.462;16.898;2022-11-20T02:45:26;16.33;;;9.07;;
32872;SDS011;19224;52.462;16.898;2022-11-20T02:47:56;17.30;;;9.93;;
32872;SDS011;19224;52.462;16.898;2022-11-20T02:50:27;16.65;;;9.58;;
32872;SDS011;19224;52.462;16.898;2022-11-20T02:52:58;17.60;;;9.53;;
32872;SDS011;19224;52.462;16.898;2022-11-20T02:55:28;16.37;;;9.57;;
32872;SDS011;19224;52.462;16.898;2022-11-20T02:57:59;16.70;;;9.63;;
32872;SDS011;19224;52.462;16.898;2022-11-20T03:00:29;19.37;;;11.40;;
32872;SDS011;19224;52.462;16.898;2022-11-20T03:02:59;16.30;;;9.80;;
32872;SDS011;19224;52.462;16.898;2022-11-20T03:05:30;20.03;;;10.00;;
32872;SDS011;19224;52.462;16.898;2022-11-20T03:08:01;17.90;;;10.90;;
32872;SDS011;19224;52.462;16.898;2022-11-20T03:10:31;20.00;;;10.20;;
32872;SDS011;19224;52.462;16.898;2022-11-20T03:13:01;17.27;;;10.23;;
32872;SDS011;19224;52.462;16.898;2022-11-20T03:15:31;18.23;;;10.60;;
32872;SDS011;19224;52.462;16.898;2022-11-20T03:18:02;18.93;;;10.70;;
32872;SDS011;19224;52.462;16.898;2022-11-20T03:20:33;19.70;;;10.83;;
32872;SDS011;19224;52.462;16.898;2022-11-20T03:23:04;20.47;;;10.97;;
32872;SDS011;19224;52.462;16.898;2022-11-20T03:25:34;17.23;;;10.87;;
32872;SDS011;19224;52.462;16.898;2022-11-20T03:28:05;23.03;;;11.23;;
32872;SDS011;19224;52.462;16.898;2022-11-20T03:30:35;21.50;;;11.23;;
32872;SDS011;19224;52.462;16.898;2022-11-20T03:33:05;22.57;;;11.50;;
32872;SDS011;19224;52.462;16.898;2022-11-20T03:35:35;18.20;;;10.57;;
32872;SDS011;19224;52.462;16.898;2022-11-20T03:38:06;21.13;;;11.80;;
32872;SDS011;19224;52.462;16.898;2022-11-20T03:40:36;20.90;;;12.37;;
32872;SDS011;19224;52.462;16.898;2022-11-20T03:43:06;18.50;;;11.37;;
32872;SDS011;19224;52.462;16.898;2022-11-20T03:45:38;21.80;;;12.33;;
32872;SDS011;19224;52.462;16.898;2022-11-20T03:48:08;19.93;;;11.37;;
32872;SDS011;19224;52.462;16.898;2022-11-20T03:50:38;19.57;;;12.43;;
32872;SDS011;19224;52.462;16.898;2022-11-20T03:53:09;19.63;;;11.80;;
32872;SDS011;19224;52.462;16.898;2022-11-20T03:55:39;18.63;;;11.60;;
32872;SDS011;19224;52.462;16.898;2022-11-20T03:58:10;21.83;;;12.13;;
32872;SDS011;19224;52.462;16.898;2022-11-20T04:00:41;20.90;;;11.63;;
32872;SDS011;19224;52.462;16.898;2022-11-20T04:03:11;19.33;;;12.17;;
32872;SDS011;19224;52.462;16.898;2022-11-20T04:05:41;20.07;;;12.40;;
32872;SDS011;19224;52.462;16.898;2022-11-20T04:08:11;19.40;;;11.70;;
32872;SDS011;19224;52.462;16.898;2022-11-20T04:10:42;19.47;;;11.57;;
32872;SDS011;19224;52.462;16.898;2022-11-20T04:13:12;19.13;;;11.47;;
32872;SDS011;19224;52.462;16.898;2022-11-20T04:15:42;18.27;;;11.27;;
32872;SDS011;19224;52.462;16.898;2022-11-20T04:18:12;20.57;;;11.50;;
32872;SDS011;19224;52.462;16.898;2022-11-20T04:20:43;20.23;;;11.00;;
32872;SDS011;19224;52.462;16.898;2022-11-20T04:23:13;19.93;;;11.33;;
32872;SDS011;19224;52.462;16.898;2022-11-20T04:25:43;18.73;;;11.87;;
32872;SDS011;19224;52.462;16.898;2022-11-20T04:28:13;17.53;;;10.87;;
32872;SDS011;19224;52.462;16.898;2022-11-20T04:30:44;19.20;;;11.80;;
32872;SDS011;19224;52.462;16.898;2022-11-20T04:33:15;17.90;;;11.23;;
32872;SDS011;19224;52.462;16.898;2022-11-20T04:35:46;20.17;;;11.83;;
32872;SDS011;19224;52.462;16.898;2022-11-20T04:38:17;18.37;;;11.67;;
32872;SDS011;19224;52.462;16.898;2022-11-20T04:40:47;22.70;;;11.37;;
32872;SDS011;19224;52.462;16.898;2022-11-20T04:43:17;18.97;;;11.23;;
32872;SDS011;19224;52.462;16.898;2022-11-20T04:45:51;20.93;;;12.30;;
32872;SDS011;19224;52.462;16.898;2022-11-20T04:48:26;19.57;;;11.57;;
32872;SDS011;19224;52.462;16.898;2022-11-20T04:51:02;19.93;;;12.10;;
32872;SDS011;19224;52.462;16.898;2022-11-20T04:53:32;19.60;;;11.30;;
32872;SDS011;19224;52.462;16.898;2022-11-20T04:56:03;19.05;;;11.38;;
32872;SDS011;19224;52.462;16.898;2022-11-20T04:58:36;20.15;;;11.68;;
32872;SDS011;19224;52.462;16.898;2022-11-20T05:01:14;21.90;;;12.60;;
32872;SDS011;19224;52.462;16.898;2022-11-20T05:03:50;23.03;;;12.20;;
32872;SDS011;19224;52.462;16.898;2022-11-20T05:06:21;21.50;;;11.43;;
32872;SDS011;19224;52.462;16.898;2022-11-20T05:08:52;20.83;;;11.43;;
32872;SDS011;19224;52.462;16.898;2022-11-20T05:11:22;22.77;;;12.73;;
32872;SDS011;19224;52.462;16.898;2022-11-20T05:13:53;23.40;;;12.50;;
32872;SDS011;19224;52.462;16.898;2022-11-20T05:16:23;23.27;;;12.70;;
32872;SDS011;19224;52.462;16.898;2022-11-20T05:18:54;22.82;;;13.15;;
32872;SDS011;19224;52.462;16.898;2022-11-20T05:21:25;20.70;;;12.47;;
32872;SDS011;19224;52.462;16.898;2022-11-20T05:23:55;20.83;;;11.83;;
32872;SDS011;19224;52.462;16.898;2022-11-20T05:26:25;24.17;;;13.13;;
32872;SDS011;19224;52.462;16.898;2022-11-20T05:28:56;20.67;;;12.10;;
32872;SDS011;19224;52.462;16.898;2022-11-20T05:31:26;22.07;;;12.67;;
32872;SDS011;19224;52.462;16.898;2022-11-20T05:33:56;19.67;;;11.80;;
32872;SDS011;19224;52.462;16.898;2022-11-20T05:36:27;19.47;;;11.27;;
32872;SDS011;19224;52.462;16.898;2022-11-20T05:38:58;18.53;;;10.73;;
32872;SDS011;19224;52.462;16.898;2022-11-20T05:41:29;19.23;;;11.37;;
32872;SDS011;19224;52.462;16.898;2022-11-20T05:44:01;18.63;;;11.30;;
32872;SDS011;19224;52.462;16.898;2022-11-20T05:46:32;14.47;;;9.30;;
32872;SDS011;19224;52.462;16.898;2022-11-20T05:49:02;18.60;;;10.83;;
32872;SDS011;19224;52.462;16.898;2022-11-20T05:51:32;17.07;;;10.50;;
32872;SDS011;19224;52.462;16.898;2022-11-20T05:54:03;16.10;;;9.90;;
32872;SDS011;19224;52.462;16.898;2022-11-20T05:56:33;15.27;;;9.33;;
32872;SDS011;19224;52.462;16.898;2022-11-20T05:59:04;16.10;;;9.77;;
32872;SDS011;19224;52.462;16.898;2022-11-20T06:01:34;15.37;;;9.50;;
32872;SDS011;19224;52.462;16.898;2022-11-20T06:04:04;14.55;;;9.13;;
32872;SDS011;19224;52.462;16.898;2022-11-20T06:06:34;17.00;;;9.67;;
32872;SDS011;19224;52.462;16.898;2022-11-20T06:09:05;16.32;;;9.65;;
32872;SDS011;19224;52.462;16.898;2022-11-20T06:11:35;16.45;;;9.45;;
32872;SDS011;19224;52.462;16.898;2022-11-20T06:14:05;15.63;;;9.10;;
32872;SDS011;19224;52.462;16.898;2022-11-20T06:16:36;16.90;;;9.83;;
32872;SDS011;19224;52.462;16.898;2022-11-20T06:19:06;19.13;;;11.77;;
32872;SDS011;19224;52.462;16.898;2022-11-20T06:21:37;20.67;;;11.83;;
32872;SDS011;19224;52.462;16.898;2022-11-20T06:24:09;20.77;;;11.60;;
32872;SDS011;19224;52.462;16.898;2022-11-20T06:26:39;18.80;;;11.27;;
32872;SDS011;19224;52.462;16.898;2022-11-20T06:29:10;22.53;;;12.20;;
32872;SDS011;19224;52.462;16.898;2022-11-20T06:31:40;19.85;;;10.80;;
32872;SDS011;19224;52.462;16.898;2022-11-20T06:34:10;30.70;;;14.20;;
32872;SDS011;19224;52.462;16.898;2022-11-20T06:36:41;24.92;;;12.75;;
32872;SDS011;19224;52.462;16.898;2022-11-20T06:39:11;21.40;;;11.33;;
32872;SDS011;19224;52.462;16.898;2022-11-20T06:41:41;22.50;;;12.07;;
32872;SDS011;19224;52.462;16.898;2022-11-20T06:44:11;21.47;;;12.33;;
32872;SDS011;19224;52.462;16.898;2022-11-20T06:46:42;20.53;;;12.20;;
32872;SDS011;19224;52.462;16.898;2022-11-20T06:49:12;21.13;;;12.27;;
32872;SDS011;19224;52.462;16.898;2022-11-20T06:51:42;20.60;;;12.27;;
32872;SDS011;19224;52.462;16.898;2022-11-20T06:54:13;21.93;;;12.43;;
32872;SDS011;19224;52.462;16.898;2022-11-20T06:56:46;22.67;;;12.40;;
32872;SDS011;19224;52.462;16.898;2022-11-20T06:59:16;23.00;;;12.27;;
32872;SDS011;19224;52.462;16.898;2022-11-20T07:01:46;24.83;;;13.40;;
32872;SDS011;19224;52.462;16.898;2022-11-20T07:04:17;23.50;;;13.27;;
32872;SDS011;19224;52.462;16.898;2022-11-20T07:06:47;23.40;;;13.43;;
32872;SDS011;19224;52.462;16.898;2022-11-20T07:09:18;26.40;;;13.77;;
32872;SDS011;19224;52.462;16.898;2022-11-20T07:11:48;23.98;;;13.70;;
32872;SDS011;19224;52.462;16.898;2022-11-20T07:14:18;29.50;;;14.10;;
32872;SDS011;19224;52.462;16.898;2022-11-20T07:16:49;27.47;;;14.40;;
32872;SDS011;19224;52.462;16.898;2022-11-20T07:19:20;29.90;;;14.90;;
32872;SDS011;19224;52.462;16.898;2022-11-20T07:21:50;30.30;;;14.27;;
32872;SDS011;19224;52.462;16.898;2022-11-20T07:24:21;28.73;;;14.23;;
32872;SDS011;19224;52.462;16.898;2022-11-20T07:26:52;27.57;;;14.93;;
32872;SDS011;19224;52.462;16.898;2022-11-20T07:29:22;27.50;;;14.93;;
32872;SDS011;19224;52.462;16.898;2022-11-20T07:31:52;23.60;;;13.00;;
32872;SDS011;19224;52.462;16.898;2022-11-20T07:34:23;29.10;;;14.13;;
32872;SDS011;19224;52.462;16.898;2022-11-20T07:36:54;28.30;;;14.20;;
32872;SDS011;19224;52.462;16.898;2022-11-20T07:39:24;22.83;;;13.43;;
32872;SDS011;19224;52.462;16.898;2022-11-20T07:41:55;29.57;;;13.13;;
32872;SDS011;19224;52.462;16.898;2022-11-20T07:44:25;23.23;;;13.47;;
32872;SDS011;19224;52.462;16.898;2022-11-20T07:46:55;23.13;;;12.50;;
32872;SDS011;19224;52.462;16.898;2022-11-20T07:49:25;24.73;;;12.73;;
32872;SDS011;19224;52.462;16.898;2022-11-20T07:51:55;22.22;;;13.20;;
32872;SDS011;19224;52.462;16.898;2022-11-20T07:54:26;27.33;;;13.87;;
32872;SDS011;19224;52.462;16.898;2022-11-20T07:56:56;27.47;;;14.30;;
32872;SDS011;19224;52.462;16.898;2022-11-20T07:59:26;28.20;;;14.30;;
32872;SDS011;19224;52.462;16.898;2022-11-20T08:01:57;26.07;;;14.30;;
32872;SDS011;19224;52.462;16.898;2022-11-20T08:04:27;29.80;;;13.73;;
32872;SDS011;19224;52.462;16.898;2022-11-20T08:06:57;25.60;;;13.90;;
32872;SDS011;19224;52.462;16.898;2022-11-20T08:09:27;25.40;;;14.00;;
32872;SDS011;19224;52.462;16.898;2022-11-20T08:11:58;26.40;;;14.50;;
32872;SDS011;19224;52.462;16.898;2022-11-20T08:14:46;26.63;;;14.20;;
32872;SDS011;19224;52.462;16.898;2022-11-20T08:17:16;28.63;;;14.37;;
32872;SDS011;19224;52.462;16.898;2022-11-20T08:19:46;27.00;;;14.10;;
32872;SDS011;19224;52.462;16.898;2022-11-20T08:22:17;29.40;;;14.65;;
32872;SDS011;19224;52.462;16.898;2022-11-20T08:24:48;26.73;;;14.83;;
32872;SDS011;19224;52.462;16.898;2022-11-20T08:27:18;25.43;;;13.97;;
32872;SDS011;19224;52.462;16.898;2022-11-20T08:29:49;28.17;;;15.03;;
32872;SDS011;19224;52.462;16.898;2022-11-20T08:32:19;26.95;;;15.20;;
32872;SDS011;19224;52.462;16.898;2022-11-20T08:34:49;26.17;;;14.77;;
32872;SDS011;19224;52.462;16.898;2022-11-20T08:37:20;26.43;;;14.83;;
32872;SDS011;19224;52.462;16.898;2022-11-20T08:39:50;27.53;;;15.73;;
32872;SDS011;19224;52.462;16.898;2022-11-20T08:42:21;27.87;;;15.10;;
32872;SDS011;19224;52.462;16.898;2022-11-20T08:44:52;29.27;;;15.60;;
32872;SDS011;19224;52.462;16.898;2022-11-20T08:47:22;27.93;;;14.90;;
32872;SDS011;19224;52.462;16.898;2022-11-20T08:49:52;26.97;;;14.40;;
32872;SDS011;19224;52.462;16.898;2022-11-20T08:52:22;26.57;;;15.03;;
32872;SDS011;19224;52.462;16.898;2022-11-20T08:54:53;27.07;;;14.43;;
32872;SDS011;19224;52.462;16.898;2022-11-20T08:57:23;27.80;;;15.23;;
32872;SDS011;19224;52.462;16.898;2022-11-20T08:59:53;28.52;;;15.83;;
32872;SDS011;19224;52.462;16.898;2022-11-20T09:02:24;25.25;;;14.55;;
32872;SDS011;19224;52.462;16.898;2022-11-20T09:04:55;27.30;;;15.10;;
32872;SDS011;19224;52.462;16.898;2022-11-20T09:07:25;27.30;;;14.55;;
32872;SDS011;19224;52.462;16.898;2022-11-20T09:09:55;33.33;;;16.70;;
32872;SDS011;19224;52.462;16.898;2022-11-20T09:12:26;29.12;;;14.98;;
32872;SDS011;19224;52.462;16.898;2022-11-20T09:14:56;28.90;;;15.00;;
32872;SDS011;19224;52.462;16.898;2022-11-20T09:17:27;24.30;;;13.50;;
32872;SDS011;19224;52.462;16.898;2022-11-20T09:19:57;27.10;;;14.95;;
32872;SDS011;19224;52.462;16.898;2022-11-20T09:22:28;29.47;;;15.17;;
32872;SDS011;19224;52.462;16.898;2022-11-20T09:24:58;30.25;;;16.85;;
32872;SDS011;19224;52.462;16.898;2022-11-20T09:27:29;32.87;;;17.73;;
32872;SDS011;19224;52.462;16.898;2022-11-20T09:29:59;25.33;;;14.67;;
32872;SDS011;19224;52.462;16.898;2022-11-20T09:32:30;27.67;;;15.45;;
32872;SDS011;19224;52.462;16.898;2022-11-20T09:35:00;26.00;;;15.18;;
32872;SDS011;19224;52.462;16.898;2022-11-20T09:37:30;27.32;;;15.60;;
32872;SDS011;19224;52.462;16.898;2022-11-20T09:40:01;28.50;;;15.30;;
32872;SDS011;19224;52.462;16.898;2022-11-20T09:42:35;28.75;;;15.30;;
32872;SDS011;19224;52.462;16.898;2022-11-20T09:45:45;28.43;;;15.60;;
32872;SDS011;19224;52.462;16.898;2022-11-20T09:54:31;26.97;;;14.90;;
32872;SDS011;19224;52.462;16.898;2022-11-20T09:57:13;28.07;;;15.45;;
32872;SDS011;19224;52.462;16.898;2022-11-20T09:59:56;27.70;;;15.00;;
32872;SDS011;19224;52.462;16.898;2022-11-20T10:10:53;30.65;;;16.62;;
32872;SDS011;19224;52.462;16.898;2022-11-20T10:13:39;28.47;;;15.83;;
32872;SDS011;19224;52.462;16.898;2022-11-20T10:25:13;25.37;;;14.53;;
32872;SDS011;19224;52.462;16.898;2022-11-20T10:28:02;26.37;;;14.30;;
32872;SDS011;19224;52.462;16.898;2022-11-20T10:30:59;23.67;;;13.40;;
32872;SDS011;19224;52.462;16.898;2022-11-20T10:33:39;27.55;;;15.00;;
32872;SDS011;19224;52.462;16.898;2022-11-20T10:36:21;28.02;;;14.83;;
32872;SDS011;19224;52.462;16.898;2022-11-20T10:39:03;27.90;;;15.00;;
32872;SDS011;19224;52.462;16.898;2022-11-20T10:41:37;33.02;;;15.25;;
32872;SDS011;19224;52.462;16.898;2022-11-20T10:44:19;26.75;;;14.85;;
32872;SDS011;19224;52.462;16.898;2022-11-20T10:47:21;29.53;;;15.13;;
32872;SDS011;19224;52.462;16.898;2022-11-20T10:49:53;28.47;;;14.93;;
32872;SDS011;19224;52.462;16.898;2022-11-20T10:52:31;27.35;;;15.20;;
32872;SDS011;19224;52.462;16.898;2022-11-20T10:55:33;30.52;;;16.00;;
32872;SDS011;19224;52.462;16.898;2022-11-20T10:58:24;27.82;;;15.53;;
32872;SDS011;19224;52.462;16.898;2022-11-20T11:01:16;29.12;;;15.65;;
32872;SDS011;19224;52.462;16.898;2022-11-20T11:03:54;30.65;;;16.12;;
32872;SDS011;19224;52.462;16.898;2022-11-20T11:06:39;28.77;;;15.68;;
32872;SDS011;19224;52.462;16.898;2022-11-20T11:09:13;33.58;;;17.32;;
32872;SDS011;19224;52.462;16.898;2022-11-20T11:11:46;29.65;;;16.10;;
32872;SDS011;19224;52.462;16.898;2022-11-20T11:14:17;33.65;;;16.32;;
32872;SDS011;19224;52.462;16.898;2022-11-20T11:16:59;33.33;;;16.42;;
32872;SDS011;19224;52.462;16.898;2022-11-20T11:19:26;30.77;;;15.70;;
32872;SDS011;19224;52.462;16.898;2022-11-20T11:21:57;29.37;;;14.93;;
32872;SDS011;19224;52.462;16.898;2022-11-20T11:24:28;27.82;;;15.05;;
32872;SDS011;19224;52.462;16.898;2022-11-20T11:29:34;29.50;;;15.43;;
32872;SDS011;19224;52.462;16.898;2022-11-20T11:32:20;27.07;;;15.20;;
32872;SDS011;19224;52.462;16.898;2022-11-20T11:35:04;27.87;;;15.38;;
32872;SDS011;19224;52.462;16.898;2022-11-20T11:37:38;28.85;;;15.75;;
32872;SDS011;19224;52.462;16.898;2022-11-20T11:40:09;29.55;;;15.70;;
32872;SDS011;19224;52.462;16.898;2022-11-20T11:42:46;28.40;;;15.43;;
32872;SDS011;19224;52.462;16.898;2022-11-20T11:45:15;28.52;;;14.35;;
32872;SDS011;19224;52.462;16.898;2022-11-20T11:47:46;32.30;;;16.82;;
32872;SDS011;19224;52.462;16.898;2022-11-20T11:50:20;26.75;;;14.23;;
32872;SDS011;19224;52.462;16.898;2022-11-20T11:55:50;31.30;;;16.93;;
32872;SDS011;19224;52.462;16.898;2022-11-20T12:08:03;24.80;;;13.80;;
32872;SDS011;19224;52.462;16.898;2022-11-20T12:10:36;26.57;;;14.10;;
32872;SDS011;19224;52.462;16.898;2022-11-20T12:12:52;30.05;;;14.90;;
32872;SDS011;19224;52.462;16.898;2022-11-20T12:15:33;26.65;;;14.33;;
32872;SDS011;19224;52.462;16.898;2022-11-20T12:18:08;31.07;;;15.35;;
32872;SDS011;19224;52.462;16.898;2022-11-20T12:21:31;30.20;;;15.33;;
32872;SDS011;19224;52.462;16.898;2022-11-20T12:27:14;30.48;;;16.10;;
32872;SDS011;19224;52.462;16.898;2022-11-20T12:30:01;40.40;;;18.32;;
32872;SDS011;19224;52.462;16.898;2022-11-20T12:33:08;37.15;;;18.07;;
32872;SDS011;19224;52.462;16.898;2022-11-20T12:36:07;35.78;;;16.97;;
32872;SDS011;19224;52.462;16.898;2022-11-20T12:39:02;32.23;;;17.40;;
32872;SDS011;19224;52.462;16.898;2022-11-20T12:47:45;35.88;;;17.85;;
32872;SDS011;19224;52.462;16.898;2022-11-20T12:53:27;32.95;;;17.57;;
32872;SDS011;19224;52.462;16.898;2022-11-20T12:56:13;32.23;;;16.57;;
32872;SDS011;19224;52.462;16.898;2022-11-20T12:59:00;32.98;;;16.85;;
32872;SDS011;19224;52.462;16.898;2022-11-20T13:05:10;32.25;;;16.97;;
32872;SDS011;19224;52.462;16.898;2022-11-20T13:07:41;32.35;;;17.27;;
32872;SDS011;19224;52.462;16.898;2022-11-20T13:10:18;32.95;;;17.12;;
32872;SDS011;19224;52.462;16.898;2022-11-20T13:12:59;35.23;;;17.62;;
32872;SDS011;19224;52.462;16.898;2022-11-20T13:18:25;31.68;;;16.65;;
32872;SDS011;19224;52.462;16.898;2022-11-20T13:20:57;36.75;;;18.20;;
32872;SDS011;19224;52.462;16.898;2022-11-20T13:23:28;33.92;;;17.42;;
32872;SDS011;19224;52.462;16.898;2022-11-20T13:26:03;34.83;;;18.23;;
32872;SDS011;19224;52.462;16.898;2022-11-20T13:28:36;33.40;;;17.27;;
32872;SDS011;19224;52.462;16.898;2022-11-20T13:31:09;33.63;;;17.17;;
32872;SDS011;19224;52.462;16.898;2022-11-20T13:33:59;33.27;;;17.53;;
32872;SDS011;19224;52.462;16.898;2022-11-20T13:36:33;36.88;;;19.65;;
32872;SDS011;19224;52.462;16.898;2022-11-20T13:39:04;35.20;;;18.00;;
32872;SDS011;19224;52.462;16.898;2022-11-20T13:41:35;31.13;;;16.83;;
32872;SDS011;19224;52.462;16.898;2022-11-20T13:44:12;38.63;;;18.45;;
32872;SDS011;19224;52.462;16.898;2022-11-20T13:46:50;33.30;;;17.67;;
32872;SDS011;19224;52.462;16.898;2022-11-20T14:05:45;34.95;;;17.17;;
32872;SDS011;19224;52.462;16.898;2022-11-20T14:08:31;31.57;;;17.37;;
32872;SDS011;19224;52.462;16.898;2022-11-20T14:11:05;31.57;;;16.70;;
32872;SDS011;19224;52.462;16.898;2022-11-20T14:13:58;33.73;;;17.70;;
32872;SDS011;19224;52.462;16.898;2022-11-20T14:16:36;34.33;;;17.40;;
32872;SDS011;19224;52.462;16.898;2022-11-20T14:19:26;33.10;;;17.52;;
32872;SDS011;19224;52.462;16.898;2022-11-20T14:24:45;34.60;;;18.60;;
32872;SDS011;19224;52.462;16.898;2022-11-20T14:27:19;34.35;;;18.40;;
32872;SDS011;19224;52.462;16.898;2022-11-20T14:29:50;39.73;;;20.03;;
32872;SDS011;19224;52.462;16.898;2022-11-20T14:32:21;37.05;;;18.80;;
32872;SDS011;19224;52.462;16.898;2022-11-20T14:34:55;39.57;;;20.57;;
32872;SDS011;19224;52.462;16.898;2022-11-20T14:37:31;53.37;;;24.90;;
32872;SDS011;19224;52.462;16.898;2022-11-20T14:46:02;41.25;;;20.02;;
32872;SDS011;19224;52.462;16.898;2022-11-20T14:48:46;39.88;;;20.08;;
32872;SDS011;19224;52.462;16.898;2022-11-20T14:54:10;44.08;;;22.02;;
32872;SDS011;19224;52.462;16.898;2022-11-20T14:56:54;41.88;;;21.30;;
32872;SDS011;19224;52.462;16.898;2022-11-20T14:59:30;38.02;;;19.95;;
32872;SDS011;19224;52.462;16.898;2022-11-20T15:02:04;40.38;;;20.48;;
32872;SDS011;19224;52.462;16.898;2022-11-20T15:04:47;43.23;;;22.27;;
32872;SDS011;19224;52.462;16.898;2022-11-20T15:07:24;43.68;;;22.20;;
32872;SDS011;19224;52.462;16.898;2022-11-20T15:10:05;40.92;;;21.37;;
32872;SDS011;19224;52.462;16.898;2022-11-20T15:13:02;41.88;;;20.52;;
32872;SDS011;19224;52.462;16.898;2022-11-20T15:15:25;39.98;;;20.62;;
32872;SDS011;19224;52.462;16.898;2022-11-20T15:18:19;41.00;;;20.97;;
32872;SDS011;19224;52.462;16.898;2022-11-20T15:21:12;42.53;;;21.75;;
32872;SDS011;19224;52.462;16.898;2022-11-20T15:23:45;44.60;;;21.87;;
32872;SDS011;19224;52.462;16.898;2022-11-20T15:26:26;41.48;;;22.00;;
32872;SDS011;19224;52.462;16.898;2022-11-20T15:28:56;45.75;;;22.73;;
32872;SDS011;19224;52.462;16.898;2022-11-20T15:31:27;46.37;;;22.85;;
32872;SDS011;19224;52.462;16.898;2022-11-20T15:33:57;46.90;;;23.60;;
32872;SDS011;19224;52.462;16.898;2022-11-20T15:36:27;64.70;;;31.20;;
32872;SDS011;19224;52.462;16.898;2022-11-20T15:38:58;47.98;;;25.43;;
32872;SDS011;19224;52.462;16.898;2022-11-20T15:41:28;49.15;;;25.80;;
32872;SDS011;19224;52.462;16.898;2022-11-20T15:43:58;53.33;;;28.73;;
32872;SDS011;19224;52.462;16.898;2022-11-20T15:46:30;51.15;;;27.58;;
32872;SDS011;19224;52.462;16.898;2022-11-20T15:49:04;58.58;;;28.83;;
32872;SDS011;19224;52.462;16.898;2022-11-20T15:51:37;59.93;;;30.77;;
32872;SDS011;19224;52.462;16.898;2022-11-20T15:54:11;58.47;;;30.23;;
32872;SDS011;19224;52.462;16.898;2022-11-20T15:56:52;53.63;;;27.35;;
32872;SDS011;19224;52.462;16.898;2022-11-20T15:59:23;49.33;;;26.10;;
32872;SDS011;19224;52.462;16.898;2022-11-20T16:01:53;53.00;;;26.35;;
32872;SDS011;19224;52.462;16.898;2022-11-20T16:04:23;52.25;;;26.73;;
32872;SDS011;19224;52.462;16.898;2022-11-20T16:06:54;59.18;;;28.02;;
32872;SDS011;19224;52.462;16.898;2022-11-20T16:09:25;53.87;;;26.93;;
32872;SDS011;19224;52.462;16.898;2022-11-20T16:11:55;52.15;;;25.80;;
32872;SDS011;19224;52.462;16.898;2022-11-20T16:14:28;50.50;;;25.85;;
32872;SDS011;19224;52.462;16.898;2022-11-20T16:17:16;60.58;;;30.17;;